Time;durP1;ratioP1;P1;durP2;ratioP2;P2;SDS_P1;SDS_P2;PMS_P1;PMS_P2;Temp;Humidity;BMP_temperature;BMP_pressure;BME280_temperature;BME280_humidity;BME280_pressure;Samples;Min_cycle;Max_cycle;Signal;HPM_P1;HPM_P2
2022/09/20 00:01:34;;;;;;;9.18;3.80;;;15.90;99.90;;;16.26;75.40;102171.53;4823796;29;20409;-75
2022/09/20 00:04:05;;;;;;;5.88;3.17;;;15.90;99.90;;;16.22;75.49;102191.16;4823929;29;20046;-75
2022/09/20 00:06:35;;;;;;;14.07;4.72;;;15.80;99.90;;;16.19;75.35;102160.91;4837734;29;20054;-76
2022/09/20 00:09:05;;;;;;;8.20;3.95;;;15.90;99.90;;;15.87;75.15;102104.19;4822542;29;20059;-75
2022/09/20 00:11:35;;;;;;;10.45;3.72;;;15.80;99.90;;;16.21;75.03;102159.13;4837408;29;20070;-75
2022/09/20 00:14:07;;;;;;;6.72;3.58;;;15.80;99.90;;;16.17;75.08;102158.25;4823702;29;20050;-75
2022/09/20 00:16:39;;;;;;;4.95;3.50;;;15.80;99.90;;;16.15;74.94;102156.50;4824022;29;20051;-75
2022/09/20 00:19:17;;;;;;;9.52;3.92;;;15.80;99.90;;;16.14;74.63;102160.06;4823701;29;20103;-76
2022/09/20 00:21:45;;;;;;;7.75;3.38;;;15.80;99.90;;;15.74;74.55;102081.13;4826738;29;20047;-76
2022/09/20 00:24:13;;;;;;;6.90;3.85;;;15.80;99.90;;;16.11;74.85;102160.97;4826840;29;20051;-76
2022/09/20 00:26:42;;;;;;;6.75;3.97;;;15.70;99.90;;;16.02;75.21;102157.47;4826852;29;20039;-75
2022/09/20 00:29:11;;;;;;;7.70;3.95;;;15.60;99.90;;;15.93;76.17;102152.22;4840853;29;20046;-76
2022/09/20 00:31:41;;;;;;;8.52;4.15;;;15.60;99.90;;;15.77;76.28;102134.50;4841180;29;20068;-76
2022/09/20 00:36:58;;;;;;;4.63;3.45;;;15.50;99.90;;;15.90;77.09;102179.78;4826720;29;20129;-75
2022/09/20 00:39:27;;;;;;;7.47;3.70;;;15.50;99.90;;;16.00;76.40;102183.28;4840901;29;20050;-76
2022/09/20 00:41:55;;;;;;;8.77;3.58;;;15.50;99.90;;;15.98;76.37;102177.06;4826637;29;20042;-76
2022/09/20 00:44:56;;;;;;;4.75;3.63;;;15.50;99.90;;;16.00;76.29;102180.63;4826576;29;20045;-75
2022/09/20 00:47:38;;;;;;;5.95;3.95;;;15.60;99.90;;;15.60;75.94;102104.34;4826642;29;20466;-75
2022/09/20 00:50:22;;;;;;;6.43;3.67;;;15.60;99.90;;;15.94;76.10;102177.97;4826538;29;20465;-76
2022/09/20 00:52:57;;;;;;;7.20;3.35;;;15.50;99.90;;;15.77;76.12;102142.50;4840604;29;20132;-76
2022/09/20 00:55:27;;;;;;;8.18;4.03;;;15.50;99.90;;;15.94;76.18;102172.66;4826340;29;20053;-76
2022/09/20 00:57:55;;;;;;;8.15;3.90;;;15.50;99.90;;;15.85;76.32;102170.03;4826331;29;20076;-76
2022/09/20 01:00:24;;;;;;;9.52;3.40;;;15.50;99.90;;;15.96;76.62;102173.53;4826454;29;20046;-76
2022/09/20 01:02:58;;;;;;;7.30;3.92;;;15.50;99.90;;;15.94;76.65;102161.97;4826318;29;20046;-76
2022/09/20 01:05:28;;;;;;;7.25;3.70;;;15.50;99.90;;;15.86;76.79;102166.44;4826315;29;20068;-76
2022/09/20 01:07:57;;;;;;;6.63;3.40;;;15.50;99.90;;;15.76;76.91;102160.28;4826251;29;20085;-76
2022/09/20 01:10:26;;;;;;;9.65;3.55;;;15.40;99.90;;;15.81;76.71;102171.84;4840400;29;20058;-76
2022/09/20 01:12:54;;;;;;;6.13;3.30;;;15.40;99.90;;;15.29;76.22;102082.25;4826170;29;20054;-76
2022/09/20 01:15:26;;;;;;;7.82;3.55;;;15.40;99.90;;;15.77;75.98;102167.41;4840444;29;20053;-76
2022/09/20 01:17:58;;;;;;;6.35;3.28;;;15.30;99.90;;;15.75;75.92;102163.88;4826028;29;20075;-76
2022/09/20 01:20:31;;;;;;;5.57;3.20;;;15.40;99.90;;;15.75;75.75;102163.88;4826046;29;20059;-76
2022/09/20 01:23:27;;;;;;;4.72;3.50;;;15.40;99.90;;;15.59;75.75;102139.91;4826055;29;20042;-76
2022/09/20 01:26:30;;;;;;;6.82;3.33;;;15.40;99.90;;;15.68;75.55;102155.91;4825977;29;20074;-77
2022/09/20 01:29:10;;;;;;;8.25;3.70;;;15.30;99.90;;;15.56;74.97;102135.50;4826098;29;20077;-76
2022/09/20 01:31:46;;;;;;;7.60;3.40;;;15.30;99.90;;;15.67;75.08;102156.78;4825649;29;20133;-76
2022/09/20 01:34:18;;;;;;;9.43;3.53;;;15.30;99.90;;;15.56;75.53;102158.59;4840011;29;20146;-76
2022/09/20 01:36:53;;;;;;;3.55;3.00;;;15.20;99.90;;;15.43;75.49;102162.22;4826018;29;20054;-76
2022/09/20 01:39:33;;;;;;;5.43;3.72;;;15.00;99.90;;;15.34;75.69;102160.44;4825659;29;20050;-76
2022/09/20 01:42:06;;;;;;;8.13;3.83;;;15.00;99.90;;;15.27;76.05;102167.53;4826152;29;20047;-76
2022/09/20 01:44:42;;;;;;;7.28;3.35;;;14.90;99.90;;;15.17;76.50;102157.81;4825709;29;20050;-76
2022/09/20 01:47:24;;;;;;;6.30;3.47;;;14.80;99.90;;;15.15;76.80;102156.03;4825673;29;20066;-76
2022/09/20 01:50:03;;;;;;;4.78;3.17;;;14.70;99.90;;;15.15;77.29;102156.94;4825670;29;20596;-77
2022/09/20 01:53:16;;;;;;;9.32;3.80;;;14.70;99.90;;;15.05;77.39;102163.19;4825571;29;20130;-76
2022/09/20 01:56:32;;;;;;;5.38;3.60;;;14.60;99.90;;;15.05;77.42;102162.28;4769615;30;20101;-76
2022/09/20 01:59:46;;;;;;;7.25;3.95;;;14.70;99.90;;;14.69;77.53;102091.28;4823945;29;20573;-77
2022/09/20 02:03:11;;;;;;;7.57;4.35;;;14.70;99.90;;;15.12;77.43;102159.59;4825330;29;20125;-76
2022/09/20 02:06:11;;;;;;;6.57;3.70;;;14.70;99.90;;;14.87;77.45;102147.22;4825347;29;20099;-76
2022/09/20 02:09:25;;;;;;;7.60;4.28;;;14.60;99.90;;;14.91;77.45;102162.31;4823900;29;20105;-76
2022/09/20 02:12:22;;;;;;;6.15;3.63;;;14.60;99.90;;;14.84;77.53;102159.66;4825318;29;20050;-76
2022/09/20 02:15:03;;;;;;;10.55;3.70;;;14.50;99.90;;;14.75;77.34;102157.00;4825362;29;20062;-77
2022/09/20 02:17:41;;;;;;;4.72;4.22;;;14.40;99.90;;;14.57;77.15;102157.91;4839346;29;20408;-76
2022/09/20 02:20:36;;;;;;;6.55;3.80;;;14.30;99.90;;;14.33;78.05;102157.88;4825242;29;20051;-77
2022/09/20 02:23:22;;;;;;;8.32;4.05;;;13.90;99.90;;;14.22;78.00;102111.72;4838969;29;20420;-76
2022/09/20 02:26:05;;;;;;;6.78;4.40;;;14.00;99.90;;;14.03;78.03;102062.03;4825267;29;20564;-76
2022/09/20 02:28:54;;;;;;;6.65;4.60;;;14.10;99.90;;;14.59;77.98;102155.22;4839013;29;20493;-76
2022/09/20 02:32:13;;;;;;;4.88;3.88;;;14.20;99.90;;;14.63;77.54;102152.59;4838793;29;20196;-76
2022/09/20 02:35:08;;;;;;;8.85;4.32;;;14.30;99.90;;;14.64;77.54;102156.09;4824956;29;20115;-76
2022/09/20 02:38:01;;;;;;;10.35;4.30;;;14.20;99.90;;;14.46;77.71;102127.69;4824821;29;20054;-76
2022/09/20 02:41:04;;;;;;;4.40;4.00;;;14.30;99.90;;;14.57;77.77;102155.25;4824754;29;20046;-76
2022/09/20 02:43:46;;;;;;;7.35;4.55;;;14.20;99.90;;;14.42;77.28;102126.81;4822653;29;20500;-76
2022/09/20 02:46:24;;;;;;;5.63;4.03;;;14.20;99.90;;;14.34;77.17;102117.09;4824774;29;20066;-76
2022/09/20 02:49:01;;;;;;;6.65;4.00;;;14.20;99.90;;;14.02;77.41;102054.91;4825173;29;20085;-76
2022/09/20 02:51:39;;;;;;;6.47;3.83;;;14.20;99.90;;;14.51;77.72;102149.91;4824754;29;20038;-76
2022/09/20 02:54:22;;;;;;;3.65;3.35;;;14.20;99.90;;;14.25;77.79;102122.34;4824690;29;20078;-76
2022/09/20 02:57:00;;;;;;;3.53;3.30;;;14.10;99.90;;;14.36;77.62;102149.91;4824635;29;20052;-76
2022/09/20 02:59:39;;;;;;;5.50;4.20;;;13.90;99.90;;;14.19;78.21;102149.84;4824526;29;20099;-76
2022/09/20 03:02:18;;;;;;;6.22;3.83;;;13.80;99.90;;;14.09;78.61;102131.22;4824546;29;20494;-76
2022/09/20 03:05:03;;;;;;;5.75;3.85;;;13.70;99.90;;;14.20;79.09;102145.41;4824502;29;20043;-76
2022/09/20 03:07:46;;;;;;;6.78;4.22;;;13.80;99.90;;;14.17;79.48;102140.06;4824421;29;20070;-76
2022/09/20 03:10:25;;;;;;;7.03;3.90;;;13.80;99.90;;;14.16;79.78;102148.97;4824396;29;20452;-76
2022/09/20 03:13:10;;;;;;;4.57;3.53;;;13.80;99.90;;;14.15;80.08;102136.56;4824596;29;20377;-76
2022/09/20 03:15:55;;;;;;;5.95;4.47;;;13.80;99.90;;;14.30;79.98;102144.59;4838476;29;20061;-76
2022/09/20 03:18:41;;;;;;;11.40;5.05;;;13.90;99.90;;;14.32;79.84;102140.16;4824288;29;20408;-76
2022/09/20 03:21:33;;;;;;;6.35;4.07;;;14.00;99.90;;;14.38;80.12;102146.34;4824161;29;20461;-77
2022/09/20 03:24:14;;;;;;;8.52;4.32;;;14.00;99.90;;;14.41;79.85;102143.69;4824574;29;20042;-76
2022/09/20 03:26:56;;;;;;;5.30;4.22;;;14.10;99.90;;;13.66;79.80;102033.63;4824490;29;20050;-76
2022/09/20 03:29:45;;;;;;;6.32;3.63;;;14.10;99.90;;;14.55;79.64;102146.38;4824246;29;20111;-76
2022/09/20 03:32:30;;;;;;;7.55;4.05;;;14.20;99.90;;;14.56;79.68;102155.22;4824369;29;20056;-76
2022/09/20 03:35:15;;;;;;;4.30;3.78;;;14.20;99.90;;;14.56;79.72;102157.88;4838016;29;20149;-76
2022/09/20 03:38:08;;;;;;;8.32;4.38;;;14.10;99.90;;;14.43;80.03;102165.00;4824205;29;20137;-76
2022/09/20 03:41:29;;;;;;;6.65;3.70;;;14.00;99.90;;;14.47;80.22;102156.13;4824142;29;20038;-76
2022/09/20 03:44:24;;;;;;;7.50;3.88;;;14.10;99.90;;;14.66;79.55;102160.56;4819691;29;20150;-76
2022/09/20 03:47:08;;;;;;;10.57;4.20;;;14.30;99.90;;;14.75;79.42;102155.22;4824235;29;20087;-76
2022/09/20 03:50:01;;;;;;;5.93;3.63;;;14.40;99.90;;;14.78;79.41;102141.00;4824097;29;20398;-76
2022/09/20 03:53:01;;;;;;;7.60;3.65;;;14.50;99.90;;;14.85;80.53;102156.97;4823970;29;20439;-76
2022/09/20 03:56:17;;;;;;;9.32;4.15;;;14.40;99.90;;;14.87;81.41;102152.53;4827024;29;20062;-76
2022/09/20 03:59:09;;;;;;;7.65;4.18;;;14.40;99.90;;;15.05;80.88;102152.53;4771304;30;20136;-75
2022/09/20 04:02:06;;;;;;;8.13;3.88;;;14.60;99.90;;;15.20;80.43;102149.81;4827603;29;20065;-76
2022/09/20 04:04:45;;;;;;;10.43;3.67;;;14.80;99.90;;;14.60;80.58;102030.06;4827410;29;20054;-76
2022/09/20 04:07:22;;;;;;;9.25;3.60;;;14.90;99.90;;;15.21;80.17;102124.91;4827605;29;20129;-75
2022/09/20 04:10:19;;;;;;;9.48;4.00;;;15.00;99.90;;;15.30;79.60;102142.66;4827652;29;20061;-76
2022/09/20 04:13:05;;;;;;;8.88;4.00;;;15.10;99.90;;;15.47;80.09;102164.84;4827565;29;20106;-76
2022/09/20 04:15:50;;;;;;;7.97;3.85;;;15.10;99.90;;;15.57;80.02;102163.03;4827110;29;20074;-76
2022/09/20 04:18:29;;;;;;;8.10;4.18;;;15.20;99.90;;;15.60;79.49;102166.56;4827155;29;20129;-76
2022/09/20 04:21:05;;;;;;;8.88;4.05;;;15.20;99.90;;;15.55;79.08;102146.16;4827027;29;20050;-76
2022/09/20 04:23:45;;;;;;;9.77;3.67;;;15.20;99.90;;;15.65;78.39;102151.44;4827064;29;20080;-76
2022/09/20 04:26:22;;;;;;;8.63;4.20;;;15.30;99.90;;;15.43;78.01;102125.75;4826964;29;20066;-76
2022/09/20 04:28:57;;;;;;;5.75;3.78;;;15.30;99.90;;;15.64;77.86;102149.66;4826982;29;20291;-76
2022/09/20 04:31:39;;;;;;;7.28;3.85;;;15.40;99.90;;;15.72;77.67;102162.97;4824816;29;20090;-75
2022/09/20 04:34:17;;;;;;;6.95;3.53;;;15.40;99.90;;;15.65;77.63;102147.88;4826794;29;20497;-76
2022/09/20 04:36:57;;;;;;;8.23;3.45;;;15.40;99.90;;;15.77;77.24;102155.84;4826831;29;20161;-75
2022/09/20 04:39:43;;;;;;;5.90;3.25;;;15.40;99.90;;;15.74;77.24;102150.50;4841177;29;20412;-76
2022/09/20 04:42:57;;;;;;;7.55;3.78;;;15.40;99.90;;;15.79;77.36;102170.06;4826636;29;20054;-75
2022/09/20 04:46:20;;;;;;;7.88;3.95;;;15.40;99.90;;;15.84;77.18;102173.59;4823712;29;20058;-76
2022/09/20 04:49:27;;;;;;;6.95;3.78;;;15.40;99.90;;;15.82;76.90;102178.94;4826519;29;20095;-76
2022/09/20 04:52:55;;;;;;;7.03;4.05;;;15.40;99.90;;;15.81;76.90;102173.59;4826419;29;20050;-76
2022/09/20 04:55:51;;;;;;;5.20;3.53;;;15.40;99.90;;;15.68;76.64;102153.22;4762453;29;20050;-76
2022/09/20 04:58:51;;;;;;;5.13;3.50;;;15.40;99.90;;;15.86;76.44;102182.47;4840582;29;20107;-76
2022/09/20 05:02:15;;;;;;;5.20;3.47;;;15.40;99.90;;;15.91;76.05;102192.22;4840462;29;20259;-76
2022/09/20 05:05:28;;;;;;;5.13;3.35;;;15.50;99.90;;;15.37;76.20;102110.63;4840554;29;20054;-75
2022/09/20 05:08:50;;;;;;;8.48;4.03;;;15.50;99.90;;;15.81;76.32;102187.84;4826154;29;20108;-76
2022/09/20 05:12:18;;;;;;;9.07;4.00;;;15.50;99.90;;;15.73;77.12;102194.09;4840273;29;20149;-76
2022/09/20 05:15:16;;;;;;;6.22;3.55;;;15.30;99.90;;;15.73;76.50;102178.09;4770083;30;20132;-77
2022/09/20 05:18:18;;;;;;;5.47;3.25;;;15.40;99.90;;;15.82;76.10;102184.28;4826142;29;20077;-76
2022/09/20 05:21:07;;;;;;;7.63;4.07;;;15.50;99.90;;;15.80;75.37;102182.50;4826224;29;20085;-76
2022/09/20 05:23:55;;;;;;;6.93;3.42;;;15.50;99.90;;;15.80;75.16;102182.50;4825999;29;20058;-76
2022/09/20 05:26:37;;;;;;;6.72;3.20;;;15.50;99.90;;;15.77;75.12;102175.41;4840014;29;20051;-78
2022/09/20 05:29:14;;;;;;;9.85;3.72;;;15.40;99.90;;;15.73;74.90;102173.66;4825810;29;20047;-77
2022/09/20 05:31:52;;;;;;;6.47;3.90;;;15.40;99.90;;;15.85;74.74;102191.38;4825892;29;20081;-78
2022/09/20 05:34:31;;;;;;;6.95;3.70;;;15.50;99.90;;;15.84;74.45;102178.91;4839867;29;20133;-76
2022/09/20 05:37:12;;;;;;;5.40;3.03;;;15.50;99.90;;;15.91;74.15;102186.88;4825745;29;20046;-77
2022/09/20 05:39:49;;;;;;;9.45;4.10;;;15.60;99.90;;;15.90;73.82;102184.22;4825966;29;20391;-77
2022/09/20 05:42:27;;;;;;;9.57;4.22;;;15.60;99.90;;;15.98;73.74;102187.75;4825614;29;20077;-77
2022/09/20 05:45:07;;;;;;;11.20;3.80;;;15.60;99.90;;;16.02;73.59;102192.19;4839724;29;20081;-77
2022/09/20 05:47:45;;;;;;;8.55;3.65;;;15.70;99.90;;;15.93;73.24;102170.88;4839957;29;20078;-77
2022/09/20 05:50:35;;;;;;;5.47;3.38;;;15.70;99.90;;;16.08;73.20;102194.81;4825590;29;20075;-77
2022/09/20 05:53:40;;;;;;;;;;;15.70;99.90;;;16.13;72.80;102188.56;4826244;29;20450;-77
2022/09/20 05:56:21;;;;;;;11.77;3.75;;;15.80;99.90;;;16.15;72.65;102186.75;4825655;29;20387;-77
2022/09/20 05:59:16;;;;;;;6.40;3.65;;;15.80;99.90;;;15.65;72.53;102111.44;4825402;29;20089;-77
2022/09/20 06:01:58;;;;;;;9.63;3.83;;;15.80;99.90;;;16.03;72.74;102175.25;4825059;29;20050;-77
2022/09/20 06:04:34;;;;;;;8.23;3.83;;;15.80;99.90;;;16.15;73.96;102207.22;4825296;29;20046;-77
2022/09/20 06:07:16;;;;;;;5.90;3.58;;;15.80;99.90;;;16.10;75.46;102206.38;4825408;29;20050;-75
2022/09/20 06:10:22;;;;;;;8.10;3.85;;;15.70;99.90;;;16.19;75.27;102208.97;4839193;29;20495;-77
2022/09/20 06:12:59;;;;;;;5.90;3.72;;;15.80;99.90;;;16.20;74.64;102224.13;4825214;29;20043;-78
2022/09/20 06:15:36;;;;;;;7.75;3.88;;;15.80;99.90;;;16.15;74.09;102212.56;4839467;29;20054;-76
2022/09/20 06:18:25;;;;;;;9.00;3.67;;;15.80;99.90;;;16.17;73.79;102217.00;4825476;29;20118;-76
2022/09/20 06:21:07;;;;;;;6.57;3.63;;;15.80;99.90;;;16.19;73.58;102223.22;4824872;29;20107;-75
2022/09/20 06:23:36;;;;;;;9.93;3.63;;;15.90;99.90;;;16.19;73.61;102206.31;4839205;29;20149;-77
2022/09/20 06:26:13;;;;;;;6.85;3.40;;;15.90;99.90;;;16.28;74.49;102219.59;4824809;29;20050;-76
2022/09/20 06:28:47;;;;;;;11.43;3.65;;;15.90;99.90;;;15.41;74.12;102073.31;4825217;29;20382;-77
2022/09/20 06:31:16;;;;;;;8.55;4.00;;;15.90;99.90;;;16.20;73.86;102205.44;4825262;29;20062;-76
2022/09/20 06:33:50;;;;;;;7.38;4.53;;;15.90;99.90;;;16.34;74.21;102208.88;4824976;29;20062;-77
2022/09/20 06:42:10;;;;;;;8.25;4.13;;;16.10;99.90;;;16.43;73.33;102229.31;4824701;29;20408;-71
2022/09/20 06:44:41;;;;;;;6.93;3.63;;;16.20;99.90;;;16.47;73.48;102225.72;4838814;29;20050;-71
2022/09/20 06:47:10;;;;;;;6.53;3.90;;;16.10;99.90;;;16.51;73.30;102224.84;4824892;29;20046;-70
2022/09/20 06:49:41;;;;;;;12.13;4.18;;;16.20;99.90;;;16.63;73.19;102248.78;4838268;29;20061;-71
2022/09/20 06:52:14;;;;;;;7.00;3.50;;;16.20;99.90;;;16.68;73.25;102231.84;4824866;29;20512;-71
2022/09/20 06:54:44;;;;;;;10.25;4.10;;;16.30;99.90;;;16.15;73.08;102132.47;4824931;29;20134;-71
2022/09/20 06:57:18;;;;;;;7.80;4.10;;;16.30;99.90;;;16.72;73.26;102238.94;4838446;29;20047;-71
2022/09/20 06:59:47;;;;;;;9.73;3.72;;;16.30;99.90;;;16.58;73.81;102214.09;4838206;29;20161;-72
2022/09/20 07:02:15;;;;;;;9.40;3.92;;;16.30;99.90;;;16.70;74.50;102242.50;4824344;29;20035;-76
2022/09/20 07:04:45;;;;;;;6.63;3.70;;;16.30;99.90;;;16.80;75.53;102242.41;4838237;29;20062;-69
2022/09/20 07:07:18;;;;;;;6.23;3.73;;;16.40;99.90;;;16.82;75.05;102232.59;4824354;29;20106;-70
2022/09/20 07:09:46;;;;;;;8.35;3.70;;;16.50;99.90;;;16.82;74.59;102219.22;4838402;29;20065;-72
2022/09/20 07:12:17;;;;;;;10.15;3.70;;;16.50;99.90;;;17.00;74.95;102240.47;4824364;29;20405;-72
2022/09/20 07:14:45;;;;;;;;;;;16.60;99.90;;;17.31;75.34;102242.84;4838628;29;20054;-69
2022/09/20 07:17:13;;;;;;;7.70;3.83;;;16.90;99.90;;;17.60;75.23;102236.31;4824154;29;19928;-71
2022/09/20 07:19:42;;;;;;;8.68;4.30;;;17.20;99.90;;;17.86;74.59;102242.28;4838269;29;20509;-70
2022/09/20 07:22:10;;;;;;;8.07;4.18;;;17.50;99.90;;;17.91;74.00;102236.84;4838011;29;20050;-69
2022/09/20 07:24:40;;;;;;;6.72;4.10;;;17.60;99.90;;;18.18;73.18;102246.28;4824110;29;20472;-69
2022/09/20 07:27:10;;;;;;;10.35;3.40;;;17.80;99.90;;;18.28;71.83;102248.84;4824012;29;20050;-68
2022/09/20 07:29:40;;;;;;;7.93;3.70;;;17.90;99.90;;;18.43;71.87;102245.06;4823386;29;20141;-67
2022/09/20 07:32:08;;;;;;;9.20;4.63;;;18.10;99.90;;;18.52;71.70;102244.97;4824232;29;20075;-68
2022/09/20 07:34:37;;;;;;;9.60;3.60;;;18.10;99.90;;;18.64;71.81;102250.13;4823976;29;20073;-68
2022/09/20 07:37:05;;;;;;;8.20;3.90;;;18.30;99.90;;;18.73;71.66;102248.19;4823712;29;20121;-69
2022/09/20 07:39:34;;;;;;;9.18;3.63;;;18.40;99.90;;;18.84;71.17;102248.91;4823977;29;20519;-72
2022/09/20 07:42:05;;;;;;;11.48;4.20;;;18.50;99.90;;;18.98;71.20;102256.72;4823815;29;20497;-71
2022/09/20 07:44:33;;;;;;;6.72;4.10;;;18.60;99.90;;;19.07;70.69;102264.59;4823851;29;20488;-76
2022/09/20 07:47:03;;;;;;;6.22;3.60;;;18.70;99.90;;;19.20;70.27;102251.88;4837968;29;20050;-72
2022/09/20 07:49:32;;;;;;;11.70;4.20;;;18.90;99.90;;;19.50;70.70;102273.69;4824188;29;20052;-73
2022/09/20 07:52:00;;;;;;;7.07;3.95;;;19.20;99.90;;;19.80;69.32;102262.34;4823878;29;20054;-71
2022/09/20 07:54:29;;;;;;;6.30;3.35;;;19.50;99.90;;;19.92;66.63;102263.03;4823753;29;20497;-71
2022/09/20 07:56:57;;;;;;;7.43;3.58;;;19.60;99.90;;;20.03;65.29;102278.03;4823155;29;20069;-74
2022/09/20 07:59:25;;;;;;;6.47;3.38;;;19.70;99.90;;;20.25;65.59;102282.03;4823814;29;20057;-69
2022/09/20 08:01:54;;;;;;;8.20;3.60;;;19.90;99.90;;;20.60;64.66;102283.94;4823901;29;20049;-71
2022/09/20 08:04:23;;;;;;;8.25;2.97;;;20.30;99.90;;;20.88;64.49;102281.47;4823766;29;20141;-71
2022/09/20 08:06:52;;;;;;;7.67;3.53;;;20.60;99.90;;;21.16;62.21;102296.03;4823726;29;20046;-69
2022/09/20 08:09:20;;;;;;;10.90;3.95;;;20.90;99.90;;;20.93;60.77;102188.97;4823631;29;20051;-72
2022/09/20 08:11:49;;;;;;;7.60;3.15;;;21.20;99.90;;;21.81;58.03;102289.84;4822581;29;20073;-69
2022/09/20 08:14:18;;;;;;;7.40;3.28;;;21.60;99.90;;;22.08;56.02;102302.53;4823647;29;20055;-70
2022/09/20 08:16:49;;;;;;;9.23;3.20;;;21.90;99.90;;;22.18;54.84;102295.06;4837585;29;20047;-70
2022/09/20 08:19:20;;;;;;;7.72;3.22;;;22.00;99.90;;;22.10;52.55;102299.78;4823760;29;20353;-71
2022/09/20 08:21:52;;;;;;;7.85;3.10;;;21.90;99.90;;;22.26;54.11;102301.13;4823439;29;20051;-70
2022/09/20 08:24:21;;;;;;;7.28;3.10;;;21.90;99.90;;;22.01;52.74;102197.66;4823991;29;20042;-70
2022/09/20 08:26:49;;;;;;;8.63;3.03;;;22.30;99.90;;;22.72;50.05;102297.91;4823483;29;20042;-71
2022/09/20 08:29:18;;;;;;;7.20;2.80;;;22.40;99.90;;;22.94;48.73;102297.16;4837190;29;20054;-70
2022/09/20 08:31:46;;;;;;;5.65;3.00;;;22.80;99.90;;;23.11;48.38;102283.13;4823432;29;20057;-71
2022/09/20 08:34:16;;;;;;;4.88;2.70;;;23.00;99.90;;;23.30;46.59;102306.75;4823344;29;20047;-70
2022/09/20 08:36:48;;;;;;;8.45;2.92;;;23.10;99.90;;;23.40;45.39;102303.75;4823415;29;20047;-70
2022/09/20 08:39:19;;;;;;;5.38;2.30;;;23.20;99.90;;;23.51;44.68;102296.16;4837566;29;20051;-70
2022/09/20 08:42:21;;;;;;;7.20;2.95;;;23.30;99.90;;;23.48;44.92;102294.44;4825308;29;20046;-70
2022/09/20 08:44:55;;;;;;;7.07;5.28;;;23.40;99.90;;;23.61;45.19;102309.28;4825103;29;20058;-70
2022/09/20 08:47:30;;;;;;;5.22;2.40;;;23.50;99.90;;;23.62;44.27;102318.25;4826551;29;20046;-70
2022/09/20 08:50:00;;;;;;;5.65;2.88;;;23.30;99.90;;;23.28;43.80;102313.13;4826557;29;20050;-70
2022/09/20 08:52:39;;;;;;;7.47;2.40;;;23.10;99.90;;;23.14;45.18;102319.00;4826532;29;20069;-71
2022/09/20 08:55:16;;;;;;;5.13;2.50;;;22.90;99.90;;;22.96;45.01;102316.88;4826301;29;20042;-71
2022/09/20 08:57:49;;;;;;;5.00;2.78;;;22.70;99.90;;;22.45;45.28;102287.00;4825357;29;20057;-71
2022/09/20 09:00:20;;;;;;;5.72;2.63;;;22.40;99.90;;;22.57;46.07;102322.69;4826413;29;20054;-71
2022/09/20 09:02:52;;;;;;;6.93;3.03;;;22.30;99.90;;;22.25;46.93;102321.78;4826369;29;20119;-71
2022/09/20 09:05:33;;;;;;;5.45;2.80;;;22.00;99.90;;;22.12;47.16;102324.88;4826320;29;20053;-71
2022/09/20 09:08:11;;;;;;;5.55;2.90;;;21.90;99.90;;;21.92;47.53;102328.16;4826691;29;20050;-71
2022/09/20 09:10:41;;;;;;;6.28;3.15;;;21.60;99.90;;;21.44;48.71;102232.50;4826276;29;20129;-71
2022/09/20 09:13:22;;;;;;;6.70;3.38;;;21.60;99.90;;;21.99;48.23;102304.63;4840304;29;20072;-71
2022/09/20 09:15:57;;;;;;;8.55;3.00;;;21.70;99.90;;;21.91;47.58;102326.34;4825965;29;20066;-71
2022/09/20 09:18:33;;;;;;;5.47;3.03;;;21.60;99.90;;;21.79;48.16;102342.84;4826256;29;20050;-71
2022/09/20 09:21:04;;;;;;;8.90;3.28;;;21.60;99.90;;;21.68;48.31;102331.47;4826448;29;20062;-71
2022/09/20 09:23:41;;;;;;;5.90;2.75;;;21.50;99.90;;;21.64;49.47;102332.47;4826035;29;20057;-71
2022/09/20 09:26:21;;;;;;;6.70;3.22;;;21.30;99.90;;;21.72;49.21;102335.84;4826013;29;20053;-73
2022/09/20 09:29:12;;;;;;;4.65;2.67;;;21.40;99.90;;;21.73;48.95;102344.81;4826040;29;20078;-71
2022/09/20 09:31:40;;;;;;;6.55;3.10;;;21.40;99.90;;;21.78;49.88;102337.47;4826156;29;20085;-71
2022/09/20 09:34:25;;;;;;;5.85;2.92;;;21.50;99.90;;;21.81;49.54;102313.19;4824888;29;20060;-71
2022/09/20 09:36:55;;;;;;;7.97;3.15;;;21.60;99.90;;;21.93;48.73;102340.69;4839779;29;20118;-71
2022/09/20 09:39:27;;;;;;;4.80;2.95;;;21.60;99.90;;;22.07;49.11;102332.19;4840054;29;20114;-71
2022/09/20 09:41:59;;;;;;;6.93;2.90;;;21.70;99.90;;;21.74;48.20;102333.13;4825663;29;20046;-71
2022/09/20 09:44:31;;;;;;;8.95;3.25;;;21.60;99.90;;;22.11;49.90;102339.28;4825728;29;20066;-71
2022/09/20 09:47:00;;;;;;;5.93;3.45;;;21.80;99.90;;;22.40;49.33;102320.44;4825632;29;20054;-71
2022/09/20 09:49:32;;;;;;;6.97;2.88;;;22.10;99.90;;;22.63;47.83;102344.06;4825539;29;20069;-71
2022/09/20 09:52:13;;;;;;;7.88;3.38;;;22.30;99.90;;;22.54;47.68;102347.00;4825213;29;20050;-71
2022/09/20 09:54:47;;;;;;;5.05;2.97;;;22.30;99.90;;;22.18;46.21;102330.97;4825565;29;20077;-71
2022/09/20 09:57:44;;;;;;;6.38;3.03;;;22.00;99.90;;;22.00;45.71;102339.59;4825514;29;20042;-70
2022/09/20 10:00:16;;;;;;;5.55;2.85;;;21.80;99.90;;;22.20;47.00;102341.72;4824313;29;20111;-71
2022/09/20 10:03:17;;;;;;;8.40;3.25;;;21.80;99.90;;;22.03;46.19;102347.59;4823919;29;20069;-72
2022/09/20 10:06:07;;;;;;;7.18;2.80;;;21.70;99.90;;;22.11;46.92;102329.38;4825430;29;20078;-71
2022/09/20 10:08:49;;;;;;;6.47;3.08;;;21.80;99.90;;;22.01;46.50;102330.56;4825640;29;20050;-70
2022/09/20 10:11:30;;;;;;;6.50;3.00;;;21.70;99.90;;;21.94;46.53;102337.06;4825412;29;20070;-72
2022/09/20 10:14:19;;;;;;;5.63;2.88;;;21.60;99.90;;;21.33;45.11;102248.06;4824167;29;20081;-73
2022/09/20 10:17:08;;;;;;;6.50;2.95;;;21.60;99.90;;;21.72;45.80;102260.41;4825400;29;20111;-69
2022/09/20 10:19:54;;;;;;;26.98;7.20;;;21.80;99.90;;;22.32;44.93;102334.16;4825077;29;20483;-73
2022/09/20 10:22:34;;;;;;;6.68;2.72;;;22.00;99.90;;;22.36;45.29;102333.13;4825182;29;20058;-71
2022/09/20 10:25:18;;;;;;;7.55;2.80;;;22.10;99.90;;;22.70;45.61;102335.75;4825146;29;20054;-71
2022/09/20 10:28:04;;;;;;;5.30;2.70;;;22.30;99.90;;;23.03;44.88;102347.28;4825161;29;20389;-71
2022/09/20 10:30:47;;;;;;;6.85;2.85;;;22.70;99.90;;;23.36;43.73;102338.09;4824828;29;20073;-70
2022/09/20 10:33:30;;;;;;;5.25;3.05;;;23.00;99.90;;;23.47;44.31;102327.81;4824768;29;20050;-61
2022/09/20 10:36:16;;;;;;;3.53;2.33;;;23.20;99.90;;;23.27;42.24;102350.03;4825111;29;20431;-71
2022/09/20 10:38:57;;;;;;;6.13;2.58;;;23.20;99.90;;;23.02;42.45;102335.59;4824690;29;20459;-72
2022/09/20 10:45:01;;;;;;;6.25;2.75;;;22.60;99.90;;;23.03;43.87;102340.06;4802326;29;20168;-71
2022/09/20 10:47:37;;;;;;;5.40;2.75;;;22.70;99.90;;;22.90;42.69;102337.81;4824717;29;20138;-70
2022/09/20 10:50:21;;;;;;;5.82;2.72;;;22.60;99.90;;;22.78;41.60;102343.59;4824812;29;20095;-73
2022/09/20 10:53:12;;;;;;;5.28;2.80;;;22.50;99.90;;;22.47;42.55;102346.31;4824640;29;20054;-72
2022/09/20 10:55:50;;;;;;;7.70;3.28;;;22.20;99.90;;;22.53;43.20;102339.84;4838437;29;20062;-74
2022/09/20 10:58:50;;;;;;;5.20;2.40;;;22.20;99.90;;;22.82;42.94;102334.47;4824547;29;20082;-65
2022/09/20 11:01:28;;;;;;;5.55;2.85;;;22.40;99.90;;;22.73;43.45;102256.47;4838474;29;20050;-71
2022/09/20 11:04:40;;;;;;;7.25;2.83;;;22.80;99.90;;;23.06;42.23;102336.38;4824010;29;20062;-71
2022/09/20 11:07:18;;;;;;;5.20;2.70;;;22.90;99.90;;;22.77;44.27;102325.63;4833096;29;20470;-71
2022/09/20 11:10:00;;;;;;;5.93;3.00;;;22.60;99.90;;;22.01;45.51;102337.81;4823254;29;20397;-71
2022/09/20 11:12:37;;;;;;;6.43;3.33;;;22.20;99.90;;;22.13;47.75;102348.22;4824791;29;20134;-71
2022/09/20 11:15:16;;;;;;;6.25;3.53;;;21.90;99.90;;;22.08;48.21;102360.94;4824308;29;20070;-74
2022/09/20 11:17:53;;;;;;;5.65;2.97;;;21.80;99.90;;;22.25;45.84;102354.16;4824380;29;20061;-72
2022/09/20 11:20:28;;;;;;;7.63;3.05;;;21.80;99.90;;;21.22;48.30;102329.09;4824554;29;20115;-72
2022/09/20 11:23:02;;;;;;;7.38;3.30;;;21.10;99.90;;;21.30;46.41;102227.47;4824279;29;20050;-71